createdAt,value
2019-04-21T00:01:12.757Z,98750.00
2019-04-21T00:03:50.079Z,98752.00
2019-04-21T00:06:39.805Z,98748.00
2019-04-21T00:09:11.553Z,98747.00
2019-04-21T00:11:36.118Z,98744.00
2019-04-21T00:14:03.648Z,98743.00
2019-04-21T00:16:29.122Z,98733.00
2019-04-21T00:19:00.838Z,98728.00
2019-04-21T00:21:34.373Z,98738.00
2019-04-21T00:24:25.048Z,98738.00
2019-04-21T00:27:01.934Z,98744.00
2019-04-21T00:29:38.445Z,98739.00
2019-04-21T00:32:03.060Z,98731.00
2019-04-21T00:34:19.590Z,98723.00
2019-04-21T00:37:00.084Z,98728.00
2019-04-21T00:39:49.003Z,98735.00
2019-04-21T00:42:12.800Z,98726.00
2019-04-21T00:44:33.033Z,98726.00
2019-04-21T00:47:05.428Z,98721.00
2019-04-21T00:49:42.716Z,98723.00
2019-04-21T00:52:40.205Z,98722.00
2019-04-21T00:55:12.276Z,98719.00
2019-04-21T00:57:33.810Z,98717.00
2019-04-21T01:00:00.913Z,98715.00
2019-04-21T01:02:33.031Z,98712.00
2019-04-21T01:05:04.887Z,98711.00
2019-04-21T01:07:31.563Z,98708.00
2019-04-21T01:09:58.747Z,98707.00
2019-04-21T01:12:37.947Z,98703.00
2019-04-21T01:15:16.724Z,98710.00
2019-04-21T01:17:35.238Z,98704.00
2019-04-21T01:20:01.149Z,98710.00
2019-04-21T01:22:18.169Z,98703.00
2019-04-21T01:24:59.275Z,98703.00
2019-04-21T01:27:33.552Z,98692.00
2019-04-21T01:30:11.749Z,98701.00
2019-04-21T01:32:42.434Z,98702.00
2019-04-21T01:35:10.259Z,98697.00
2019-04-21T01:37:52.788Z,98695.00
2019-04-21T01:40:22.994Z,98697.00
2019-04-21T01:42:45.785Z,98685.00
2019-04-21T01:45:15.713Z,98686.00
2019-04-21T01:47:46.313Z,98686.00
2019-04-21T01:50:09.901Z,98686.00
2019-04-21T01:53:11.564Z,98684.00
2019-04-21T01:55:25.107Z,98684.00
2019-04-21T01:57:55.320Z,98685.00
2019-04-21T02:00:27.063Z,98679.00
2019-04-21T02:03:10.809Z,98686.00
2019-04-21T02:05:39.351Z,98677.00
2019-04-21T02:08:01.127Z,98680.00
2019-04-21T02:10:44.457Z,98683.00
2019-04-21T02:13:03.635Z,98676.00
2019-04-21T02:15:42.072Z,98673.00
2019-04-21T02:18:07.522Z,98663.00
2019-04-21T02:20:32.743Z,98670.00
2019-04-21T02:25:44.251Z,98672.00
2019-04-21T02:28:24.436Z,98665.00
2019-04-21T02:33:39.273Z,98660.00
2019-04-21T02:43:25.537Z,98656.00
2019-04-21T02:46:08.528Z,98648.00
2019-04-21T02:48:39.429Z,98640.00
2019-04-21T02:51:03.958Z,98638.00
2019-04-21T02:56:13.929Z,98628.00
2019-04-21T02:58:43.703Z,98625.00
2019-04-21T03:01:35.036Z,98622.00
2019-04-21T03:04:24.753Z,98625.00
2019-04-21T03:07:09.708Z,98619.00
2019-04-21T03:09:44.919Z,98615.00
2019-04-21T03:14:48.409Z,98600.00
2019-04-21T03:22:15.694Z,98591.00
2019-04-21T03:25:04.286Z,98590.00
2019-04-21T03:29:44.738Z,98580.00
2019-04-21T03:35:15.002Z,98574.00
2019-04-21T03:37:25.222Z,98575.00
2019-04-21T03:39:50.742Z,98571.00
2019-04-21T03:42:27.146Z,98579.00
2019-04-21T03:50:05.235Z,98574.00
2019-04-21T04:03:33.127Z,98579.00
2019-04-21T04:06:09.595Z,98589.00
2019-04-21T04:11:12.332Z,98577.00
2019-04-21T04:13:47.804Z,98570.00
2019-04-21T04:16:10.267Z,98577.00
2019-04-21T04:18:48.743Z,98575.00
2019-04-21T04:21:22.198Z,98575.00
2019-04-21T04:23:45.217Z,98577.00
2019-04-21T04:26:15.316Z,98572.00
2019-04-21T04:29:08.850Z,98569.00
2019-04-21T04:31:28.849Z,98576.00
2019-04-21T04:34:05.007Z,98575.00
2019-04-21T04:36:30.198Z,98576.00
2019-04-21T04:39:23.175Z,98572.00
2019-04-21T04:42:04.863Z,98581.00
2019-04-21T04:44:39.530Z,98576.00
2019-04-21T04:49:43.327Z,98579.00
2019-04-21T04:52:19.205Z,98586.00
2019-04-21T04:54:47.619Z,98580.00
2019-04-21T04:57:08.234Z,98568.00
2019-04-21T05:02:17.009Z,98573.00
2019-04-21T05:04:55.176Z,98574.00
2019-04-21T05:07:08.497Z,98574.00
2019-04-21T05:09:41.378Z,98575.00
2019-04-21T05:12:01.942Z,98571.00
2019-04-21T05:14:39.037Z,98576.00
2019-04-21T05:17:15.661Z,98575.00
2019-04-21T05:19:57.353Z,98565.00
2019-04-21T05:22:17.222Z,98570.00
2019-04-21T05:24:33.328Z,98563.00
2019-04-21T05:27:02.891Z,98566.00
2019-04-21T05:29:37.792Z,98559.00
2019-04-21T05:32:17.273Z,98569.00
2019-04-21T05:34:53.277Z,98562.00
2019-04-21T05:37:25.638Z,98560.00
2019-04-21T05:39:57.957Z,98564.00
2019-04-21T05:42:27.287Z,98563.00
2019-04-21T05:45:08.005Z,98569.00
2019-04-21T05:47:39.833Z,98561.00
2019-04-21T05:50:07.528Z,98571.00
2019-04-21T05:52:35.316Z,98570.00
2019-04-21T05:55:19.902Z,98568.00
2019-04-21T05:57:47.820Z,98559.00
2019-04-21T06:00:15.636Z,98575.00
2019-04-21T06:02:52.882Z,98567.00
2019-04-21T06:07:55.407Z,98563.00
2019-04-21T06:10:27.128Z,98560.00
2019-04-21T06:12:59.816Z,98562.00
2019-04-21T06:15:34.701Z,98569.00
2019-04-21T06:18:05.013Z,98567.00
2019-04-21T06:20:35.457Z,98566.00
2019-04-21T06:23:06.275Z,98568.00
2019-04-21T06:25:50.390Z,98562.00
2019-04-21T06:28:04.724Z,98553.00
2019-04-21T06:30:42.673Z,98551.00
2019-04-21T06:33:00.283Z,98551.00
2019-04-21T06:36:11.479Z,98548.00
2019-04-21T06:38:19.277Z,98541.00
2019-04-21T06:40:48.667Z,98549.00
2019-04-21T06:43:25.854Z,98544.00
2019-04-21T06:45:54.394Z,98538.00
2019-04-21T06:48:24.932Z,98547.00
2019-04-21T06:50:52.530Z,98540.00
2019-04-21T06:53:29.610Z,98546.00
2019-04-21T06:55:51.859Z,98544.00
2019-04-21T06:58:28.972Z,98545.00
2019-04-21T07:00:56.329Z,98545.00
2019-04-21T07:03:40.469Z,98546.00
2019-04-21T07:06:03.203Z,98548.00
2019-04-21T07:10:59.483Z,98550.00
2019-04-21T07:13:28.728Z,98538.00
2019-04-21T07:16:04.766Z,98541.00
2019-04-21T07:18:39.826Z,98550.00
2019-04-21T07:20:59.737Z,98536.00
2019-04-21T07:23:39.823Z,98541.00
2019-04-21T07:26:04.506Z,98541.00
2019-04-21T07:28:46.149Z,98540.00
2019-04-21T07:31:09.864Z,98540.00
2019-04-21T07:33:54.314Z,98537.00
2019-04-21T07:36:16.232Z,98531.00
2019-04-21T07:38:41.268Z,98536.00
2019-04-21T07:41:02.537Z,98543.00
2019-04-21T07:43:33.962Z,98540.00
2019-04-21T07:46:09.277Z,98529.00
2019-04-21T07:48:46.078Z,98535.00
2019-04-21T07:51:25.375Z,98523.00
2019-04-21T07:54:03.334Z,98528.00
2019-04-21T07:56:19.147Z,98531.00
2019-04-21T08:01:30.766Z,98524.00
2019-04-21T08:04:23.122Z,98531.00
2019-04-21T08:06:40.299Z,98530.00
2019-04-21T08:09:08.865Z,98518.00
2019-04-21T08:11:32.681Z,98520.00
2019-04-21T08:14:06.927Z,98514.00
2019-04-21T08:16:42.146Z,98517.00
2019-04-21T08:19:13.416Z,98509.00
2019-04-21T08:21:44.287Z,98514.00
2019-04-21T08:24:06.383Z,98510.00
2019-04-21T08:26:45.182Z,98506.00
2019-04-21T08:29:25.715Z,98512.00
2019-04-21T08:34:25.498Z,98499.00
2019-04-21T08:36:46.489Z,98509.00
2019-04-21T08:39:22.788Z,98499.00
2019-04-21T08:41:52.632Z,98492.00
2019-04-21T08:44:25.629Z,98492.00
2019-04-21T08:46:52.389Z,98493.00
2019-04-21T08:49:22.165Z,98488.00
2019-04-21T08:52:01.738Z,98485.00
2019-04-21T08:54:26.481Z,98487.00
2019-04-21T08:57:01.259Z,98479.00
2019-04-21T08:59:39.049Z,98477.00
2019-04-21T09:02:21.041Z,98486.00
2019-04-21T09:04:39.625Z,98484.00
2019-04-21T09:07:12.994Z,98488.00
2019-04-21T09:09:57.450Z,98478.00
2019-04-21T09:12:15.013Z,98480.00
2019-04-21T09:14:50.279Z,98471.00
2019-04-21T09:17:10.481Z,98477.00
2019-04-21T09:22:18.225Z,98463.00
2019-04-21T09:24:52.602Z,98461.00
2019-04-21T09:27:23.209Z,98451.00
2019-04-21T09:29:39.351Z,98443.00
2019-04-21T09:32:13.563Z,98441.00
2019-04-21T09:34:41.522Z,98450.00
2019-04-21T09:37:19.124Z,98435.00
2019-04-21T09:39:43.718Z,98441.00
2019-04-21T09:42:11.404Z,98431.00
2019-04-21T09:44:44.007Z,98424.00
2019-04-21T09:47:12.622Z,98425.00
2019-04-21T09:49:43.285Z,98424.00
2019-04-21T09:52:18.520Z,98422.00
2019-04-21T09:54:54.822Z,98417.00
2019-04-21T09:57:26.508Z,98420.00
2019-04-21T09:59:57.088Z,98412.00
2019-04-21T10:02:25.242Z,98409.00
2019-04-21T10:04:48.247Z,98403.00
2019-04-21T10:07:26.533Z,98394.00
2019-04-21T10:09:50.026Z,98398.00
2019-04-21T10:12:19.945Z,98393.00
2019-04-21T10:14:49.476Z,98383.00
2019-04-21T10:17:27.434Z,98376.00
2019-04-21T10:20:00.640Z,98382.00
2019-04-21T10:22:32.935Z,98375.00
2019-04-21T10:25:02.953Z,98364.00
2019-04-21T10:27:32.355Z,98362.00
2019-04-21T10:30:01.970Z,98361.00
2019-04-21T10:32:32.371Z,98359.00
2019-04-21T10:35:01.693Z,98359.00
2019-04-21T10:37:42.364Z,98354.00
2019-04-21T10:40:03.443Z,98350.00
2019-04-21T10:42:33.454Z,98345.00
2019-04-21T10:45:03.409Z,98335.00
2019-04-21T10:47:32.874Z,98339.00
2019-04-21T10:50:02.859Z,98338.00
2019-04-21T10:52:50.985Z,98335.00
2019-04-21T10:55:37.989Z,98322.00
2019-04-21T10:58:08.822Z,98331.00
2019-04-21T11:00:40.029Z,98328.00
2019-04-21T11:03:29.189Z,98317.00
2019-04-21T11:06:01.060Z,98311.00
2019-04-21T11:08:37.549Z,98316.00
2019-04-21T11:11:03.765Z,98313.00
2019-04-21T11:13:34.650Z,98307.00
2019-04-21T11:16:05.500Z,98309.00
2019-04-21T11:18:35.949Z,98307.00
2019-04-21T11:21:06.915Z,98300.00
2019-04-21T11:23:37.497Z,98291.00
2019-04-21T11:26:06.941Z,98292.00
2019-04-21T11:28:36.848Z,98293.00
2019-04-21T11:31:07.020Z,98291.00
2019-04-21T11:33:37.596Z,98278.00
2019-04-21T11:36:07.465Z,98280.00
2019-04-21T11:38:55.339Z,98275.00
2019-04-21T11:41:09.875Z,98279.00
2019-04-21T11:43:39.409Z,98271.00
2019-04-21T11:46:09.015Z,98265.00
2019-04-21T11:48:39.871Z,98269.00
2019-04-21T11:51:10.926Z,98257.00
2019-04-21T11:53:41.115Z,98263.00
2019-04-21T11:56:10.498Z,98259.00
2019-04-21T11:58:39.782Z,98250.00
2019-04-21T12:01:09.681Z,98249.00
2019-04-21T12:03:39.919Z,98251.00
2019-04-21T12:06:09.286Z,98259.00
2019-04-21T12:08:42.812Z,98259.00
2019-04-21T12:11:09.807Z,98247.00
2019-04-21T12:13:40.337Z,98241.00
2019-04-21T12:16:12.769Z,98247.00
2019-04-21T12:18:42.941Z,98242.00
2019-04-21T12:21:13.505Z,98238.00
2019-04-21T12:23:44.670Z,98240.00
2019-04-21T12:26:15.850Z,98240.00
2019-04-21T12:28:45.994Z,98240.00
2019-04-21T12:31:23.473Z,98235.00
2019-04-21T12:34:03.835Z,98230.00
2019-04-21T12:36:33.801Z,98218.00
2019-04-21T12:39:05.572Z,98219.00
2019-04-21T12:41:34.497Z,98219.00
2019-04-21T12:44:04.616Z,98210.00
2019-04-21T12:46:34.092Z,98213.00
2019-04-21T12:49:04.153Z,98202.00
2019-04-21T12:51:33.824Z,98205.00
2019-04-21T12:54:03.793Z,98197.00
2019-04-21T12:56:33.680Z,98189.00
2019-04-21T12:59:03.054Z,98193.00
2019-04-21T13:01:32.824Z,98188.00
2019-04-21T13:04:02.204Z,98185.00
2019-04-21T13:06:31.794Z,98185.00
2019-04-21T13:09:05.287Z,98176.00
2019-04-21T13:11:33.139Z,98176.00
2019-04-21T13:14:02.484Z,98173.00
2019-04-21T13:16:31.792Z,98176.00
2019-04-21T13:19:01.041Z,98175.00
2019-04-21T13:21:30.324Z,98165.00
2019-04-21T13:24:00.869Z,98157.00
2019-04-21T13:26:42.763Z,98158.00
2019-04-21T13:29:02.583Z,98158.00
2019-04-21T13:31:32.125Z,98157.00
2019-04-21T13:34:02.152Z,98151.00
2019-04-21T13:36:31.816Z,98152.00
2019-04-21T13:39:44.575Z,98149.00
2019-04-21T13:42:02.855Z,98148.00
2019-04-21T13:44:23.461Z,98146.00
2019-04-21T13:46:52.885Z,98134.00
2019-04-21T13:49:23.550Z,98128.00
2019-04-21T13:51:54.207Z,98130.00
2019-04-21T13:54:25.513Z,98121.00
2019-04-21T13:56:56.415Z,98115.00
2019-04-21T13:59:26.449Z,98120.00
2019-04-21T14:01:55.769Z,98113.00
2019-04-21T14:04:25.484Z,98112.00
2019-04-21T14:06:54.686Z,98105.00
2019-04-21T14:09:35.989Z,98112.00
2019-04-21T14:11:55.774Z,98094.00
2019-04-21T14:14:26.284Z,98094.00
2019-04-21T14:16:56.146Z,98091.00
2019-04-21T14:19:25.675Z,98088.00
2019-04-21T14:21:55.265Z,98090.00
2019-04-21T14:24:24.746Z,98089.00
2019-04-21T14:26:54.365Z,98082.00
2019-04-21T14:29:24.010Z,98078.00
2019-04-21T14:31:53.531Z,98081.00
2019-04-21T14:34:23.898Z,98076.00
2019-04-21T14:36:54.920Z,98075.00
2019-04-21T14:39:24.554Z,98077.00
2019-04-21T14:41:53.928Z,98073.00
2019-04-21T14:44:23.165Z,98076.00
2019-04-21T14:46:55.317Z,98062.00
2019-04-21T14:49:29.147Z,98066.00
2019-04-21T14:52:01.093Z,98057.00
2019-04-21T14:54:34.816Z,98056.00
2019-04-21T14:57:05.182Z,98061.00
2019-04-21T14:59:35.235Z,98054.00
2019-04-21T15:02:05.621Z,98054.00
2019-04-21T15:04:35.651Z,98049.00
2019-04-21T15:07:05.704Z,98048.00
2019-04-21T15:09:37.202Z,98051.00
2019-04-21T15:12:07.847Z,98050.00
2019-04-21T15:14:38.071Z,98045.00
2019-04-21T15:17:07.476Z,98041.00
2019-04-21T15:19:36.744Z,98049.00
2019-04-21T15:22:06.310Z,98041.00
2019-04-21T15:24:36.260Z,98040.00
2019-04-21T15:27:07.088Z,98038.00
2019-04-21T15:29:36.875Z,98035.00
2019-04-21T15:32:08.399Z,98035.00
2019-04-21T15:34:42.530Z,98035.00
2019-04-21T15:37:13.939Z,98030.00
2019-04-21T15:42:46.517Z,98030.00
2019-04-21T15:45:42.879Z,98023.00
2019-04-21T15:48:16.068Z,98025.00
2019-04-21T15:50:46.136Z,98018.00
2019-04-21T16:00:20.585Z,98003.00
2019-04-21T16:12:22.072Z,97995.00
2019-04-21T16:28:59.782Z,97987.00
2019-04-21T16:35:05.357Z,97988.00
2019-04-21T16:54:12.070Z,97973.00
2019-04-21T16:57:11.932Z,97967.00
2019-04-21T17:08:59.070Z,97963.00
2019-04-21T17:40:04.798Z,97954.00
2019-04-21T17:49:25.226Z,97958.00
2019-04-21T17:58:31.977Z,97962.00
2019-04-21T18:10:50.717Z,97962.00
2019-04-21T18:13:18.073Z,97967.00
2019-04-21T18:32:26.379Z,97953.00
2019-04-21T18:35:03.805Z,97951.00
2019-04-21T18:38:13.281Z,97958.00
2019-04-21T18:46:09.395Z,97956.00
2019-04-21T18:55:16.588Z,97960.00
2019-04-21T18:57:42.029Z,97955.00
2019-04-21T19:00:15.281Z,97963.00
2019-04-21T19:02:45.285Z,97963.00
2019-04-21T19:05:15.458Z,97967.00
2019-04-21T19:08:02.915Z,97968.00
2019-04-21T19:10:37.657Z,97967.00
2019-04-21T19:13:29.144Z,97960.00
2019-04-21T19:15:32.825Z,97971.00
2019-04-21T19:20:41.334Z,97965.00
2019-04-21T19:23:04.563Z,97962.00
2019-04-21T19:25:41.020Z,97959.00
2019-04-21T19:28:08.152Z,97969.00
2019-04-21T19:30:49.392Z,97961.00
2019-04-21T19:33:17.751Z,97955.00
2019-04-21T19:35:31.882Z,97955.00
2019-04-21T19:38:07.058Z,97962.00
2019-04-21T19:40:54.937Z,97962.00
2019-04-21T19:43:16.009Z,97955.00
2019-04-21T19:45:48.642Z,97950.00
2019-04-21T19:48:25.271Z,97952.00
2019-04-21T19:51:00.462Z,97950.00
2019-04-21T19:53:25.336Z,97949.00
2019-04-21T19:55:40.382Z,97950.00
2019-04-21T19:58:10.722Z,97959.00
2019-04-21T20:00:40.387Z,97945.00
2019-04-21T20:03:10.447Z,97944.00
2019-04-21T20:05:47.594Z,97940.00
2019-04-21T20:08:23.362Z,97945.00
2019-04-21T20:11:01.270Z,97936.00
2019-04-21T20:13:45.358Z,97934.00
2019-04-21T20:16:01.462Z,97934.00
2019-04-21T20:18:24.503Z,97942.00
2019-04-21T20:20:46.123Z,97939.00
2019-04-21T20:23:22.159Z,97946.00
2019-04-21T20:25:51.685Z,97937.00
2019-04-21T20:28:30.569Z,97942.00
2019-04-21T20:31:06.703Z,97933.00
2019-04-21T20:36:09.619Z,97937.00
2019-04-21T20:38:34.045Z,97942.00
2019-04-21T20:41:01.882Z,97936.00
2019-04-21T20:43:42.743Z,97933.00
2019-04-21T20:46:12.283Z,97936.00
2019-04-21T20:48:42.395Z,97933.00
2019-04-21T20:51:14.934Z,97930.00
2019-04-21T20:53:46.461Z,97929.00
2019-04-21T20:56:11.184Z,97921.00
2019-04-21T20:58:46.261Z,97926.00
2019-04-21T21:01:33.048Z,97917.00
2019-04-21T21:03:48.919Z,97921.00
2019-04-21T21:06:23.195Z,97920.00
2019-04-21T21:08:49.962Z,97928.00
2019-04-21T21:11:24.280Z,97915.00
2019-04-21T21:13:58.738Z,97921.00
2019-04-21T21:16:29.667Z,97918.00
2019-04-21T21:21:28.135Z,97924.00
2019-04-21T21:23:58.841Z,97918.00
2019-04-21T21:26:34.358Z,97911.00
2019-04-21T21:28:54.925Z,97911.00
2019-04-21T21:31:38.624Z,97907.00
2019-04-21T21:34:11.806Z,97906.00
2019-04-21T21:36:36.552Z,97897.00
2019-04-21T21:39:09.190Z,97901.00
2019-04-21T21:41:27.150Z,97899.00
2019-04-21T21:44:03.914Z,97907.00
2019-04-21T21:46:40.239Z,97908.00
2019-04-21T21:49:04.025Z,97903.00
2019-04-21T21:51:39.812Z,97898.00
2019-04-21T21:53:57.349Z,97899.00
2019-04-21T21:56:26.989Z,97910.00
2019-04-21T21:59:00.595Z,97902.00
2019-04-21T22:01:36.406Z,97904.00
2019-04-21T22:04:09.223Z,97896.00
2019-04-21T22:06:41.982Z,97904.00
2019-04-21T22:09:01.811Z,97897.00
2019-04-21T22:11:31.774Z,97894.00
2019-04-21T22:14:06.090Z,97898.00
2019-04-21T22:16:43.157Z,97892.00
2019-04-21T22:19:18.840Z,97887.00
2019-04-21T22:21:53.552Z,97887.00
2019-04-21T22:24:21.606Z,97883.00
2019-04-21T22:26:37.387Z,97889.00
2019-04-21T22:29:07.805Z,97882.00
2019-04-21T22:31:40.804Z,97877.00
2019-04-21T22:34:12.524Z,97882.00
2019-04-21T22:36:48.638Z,97885.00
2019-04-21T22:39:29.163Z,97879.00
2019-04-21T22:41:46.665Z,97885.00
2019-04-21T22:44:16.955Z,97881.00
2019-04-21T22:46:59.960Z,97887.00
2019-04-21T22:49:18.618Z,97886.00
2019-04-21T22:51:51.759Z,97882.00
2019-04-21T22:54:26.808Z,97881.00
2019-04-21T22:56:59.281Z,97879.00
2019-04-21T22:59:24.497Z,97876.00
2019-04-21T23:01:55.711Z,97882.00
2019-04-21T23:04:32.900Z,97883.00
2019-04-21T23:07:02.156Z,97876.00
2019-04-21T23:09:28.742Z,97870.00
2019-04-21T23:12:01.031Z,97876.00
2019-04-21T23:14:33.883Z,97866.00
2019-04-21T23:17:26.628Z,97865.00
2019-04-21T23:19:42.623Z,97860.00
2019-04-21T23:22:21.359Z,97856.00
2019-04-21T23:24:56.545Z,97861.00
2019-04-21T23:27:14.226Z,97843.00
2019-04-21T23:30:00.214Z,97851.00
2019-04-21T23:32:20.965Z,97851.00
2019-04-21T23:34:40.700Z,97844.00
2019-04-21T23:37:15.059Z,97842.00
2019-04-21T23:39:41.573Z,97841.00
2019-04-21T23:42:11.208Z,97844.00
2019-04-21T23:44:45.910Z,97836.00
2019-04-21T23:47:19.994Z,97843.00
2019-04-21T23:49:51.101Z,97838.00
2019-04-21T23:52:16.009Z,97844.00
2019-04-21T23:54:45.288Z,97841.00
2019-04-21T23:57:22.271Z,97832.00
2019-04-21T23:59:51.301Z,97835.00
